Airfield :
LOGIN :

Register | Disclaimer

   EN    FR    IT 

 










Legend :    VFR   Marginal VFR   IFR   Intensive IFR   Very Intensive IFR
Visi :
Ceiling :
>= 8 km
>= 3000ft
5 to 8 km
1000 to 3000 ft
1500m to 5 km
500 to 1000 ft
800 to 1500m
200 to 500 ft
< 800m
< 200 ft
Symbols :   Thunderstorms  Fog  Heavy snow  Heavy precipitations  Wind > 20 kt
SIGMETs :     Misc.  Thunderstorms  Icing  Turbulence  Mountain Waves  Volcanic Ashes







- Airport Elevation : 161 ft
- IATA code : PMF


LIMP - Parma

CURRENT METAR :
  • 171350Z VRB02KT 9999 SCT060 05/M09 Q1019

EXPIRED METARs :
  • 171250Z VRB01KT 9999 SCT050 04/M09 Q1019
  • 171150Z VRB02KT 9999 BKN050 04/M08 Q1019

TAF TAF LIMP
Valid from the 17 at 12:00 until the 18 at 12:00 UTC


171100Z 1712/1812 VRB05KT 9999 SCT050
No reported NOTAMs for that airfield.
1 SIGMET reported for the Milano FIR (LIMM) :
 
Severe icing
LIMM SIGMET 4 VALID 171120/171520 LIMM- LIMM MILANO FIR SEV ICE FCST WI N4451 E01308 - N4407 E01031 - N4342 E01102 - N4328 E01430 - N4431 E01317 - N4451 E01308 BLW FL100 STNR NC=



MET'MAP, your aeronautical weather chart ! - Copyright ORBIFLY December 2007 - Disclaimer

ORBIFLY MET'MAP TEAM :

Programming & Development : Alexandra Zaïnal
Concept & Development : Baudouin d'Aumeries
Co-Development & Prog : Marc-Olivier Méhu
Technical & hardware support : Manuel Goepfert

Contact : metmap@orbifly.com




SOURCES & CREDITS :

   NOAA